EDT,Max TemperatureF,Mean TemperatureF,Min TemperatureF,Max Dew PointF,MeanDew PointF,Min DewpointF,Max Humidity, Mean Humidity, Min Humidity, Max Sea Level PressureIn, Mean Sea Level PressureIn, Min Sea Level PressureIn, Max VisibilityMiles, Mean VisibilityMiles, Min VisibilityMiles, Max Wind SpeedMPH, Mean Wind SpeedMPH, Max Gust SpeedMPH,PrecipitationIn, CloudCover, Events, WindDirDegrees
2011-10-1,71,63,54,57,53,45,84,73,61,29.75,29.66,29.59,10,10,2,17,9,22,0.20,7,Rain,341
2011-10-2,68,61,54,52,48,43,86,64,42,29.91,29.81,29.73,10,9,2,16,9,20,0.27,7,Rain,180
2011-10-3,60,56,51,48,45,40,89,70,51,30.07,30.02,29.92,10,9,2,15,6,21,0.37,6,Rain,247
2011-10-4,63,57,50,54,50,46,86,73,60,30.02,29.98,29.95,10,10,8,16,8,23,T,6,Rain,321
2011-10-5,72,60,47,51,41,23,83,55,27,30.28,30.07,29.99,10,10,10,23,10,30,0.00,0,,326
2011-10-6,68,56,44,44,33,25,71,46,20,30.35,30.31,30.26,10,10,10,16,6,22,0.00,0,,319
2011-10-7,64,54,44,44,37,31,76,55,33,30.48,30.44,30.35,10,10,10,10,5,14,0.00,0,,336
2011-10-8,75,62,49,58,49,43,80,65,49,30.49,30.43,30.38,10,10,10,14,5,16,0.00,0,,252
2011-10-9,79,66,53,61,55,49,80,64,48,30.40,30.34,30.27,10,10,10,10,3,14,0.00,0,,240
2011-10-10,85,70,54,60,54,48,86,58,29,30.26,30.19,30.13,10,10,9,15,5,17,0.00,0,,284
2011-10-11,70,67,63,56,49,39,78,56,33,30.23,30.19,30.14,10,10,10,15,7,20,0.00,0,,87
2011-10-12,64,61,57,52,50,44,80,68,55,30.19,30.12,29.98,10,10,9,18,11,24,0.01,4,Rain,52
2011-10-13,67,63,58,63,58,54,93,83,73,29.95,29.80,29.73,10,6,2,20,11,23,0.16,8,Rain,44
2011-10-14,72,66,60,67,64,50,93,79,65,29.72,29.54,29.37,10,8,1,22,11,29,0.17,7,Rain,151
2011-10-15,67,63,58,48,42,36,64,51,37,29.76,29.63,29.51,10,10,10,25,15,35,T,3,Rain,242
2011-10-16,68,64,59,46,39,35,48,40,32,29.88,29.79,29.66,10,10,10,26,16,33,T,3,,235
2011-10-17,67,62,57,51,42,32,80,55,29,29.78,29.72,29.64,10,10,10,17,12,25,T,3,Rain,247
2011-10-18,68,59,50,50,42,34,77,52,27,29.92,29.86,29.79,10,10,10,13,4,14,0.00,2,,242
2011-10-19,62,59,56,57,54,48,90,80,69,29.90,29.69,29.47,10,7,2,23,14,31,0.69,8,Rain,40
2011-10-20,69,64,58,66,55,41,93,71,48,29.70,29.48,29.38,10,8,2,29,18,37,0.15,6,Rain,160
2011-10-21,62,56,50,43,39,37,63,53,42,30.00,29.87,29.71,10,10,10,23,11,32,0.00,2,,252
2011-10-22,63,55,47,42,39,37,80,60,39,30.10,30.04,30.00,10,10,10,14,6,21,0.00,2,,290
2011-10-23,59,53,46,41,38,34,71,56,40,30.16,30.12,30.09,10,10,10,12,4,16,0.00,5,,261
2011-10-24,63,54,44,50,44,39,89,69,48,30.14,30.07,29.95,10,9,6,14,6,17,T,3,,223
2011-10-25,64,56,48,48,36,26,77,51,25,30.05,29.99,29.94,10,10,9,23,7,29,0.00,1,,285
2011-10-26,62,55,47,49,43,33,72,61,50,30.05,29.88,29.75,10,10,10,12,4,14,T,6,Rain,44
2011-10-27,56,47,38,48,42,33,89,81,72,29.93,29.69,29.62,10,7,2,22,10,28,0.69,8,Rain,19
2011-10-28,51,43,34,32,27,21,82,57,32,30.27,30.17,29.96,10,10,10,15,6,22,0.00,1,,339
2011-10-29,44,39,34,34,30,24,92,71,49,30.25,29.96,29.82,10,4,0,26,15,36,1.25,8,Fog-Rain-Snow,16
2011-10-30,49,42,34,31,28,23,89,63,36,30.32,30.07,29.83,10,9,2,23,10,33,T,2,Snow,320
2011-10-31,54,43,31,38,32,26,92,67,41,30.42,30.37,30.34,10,10,7,10,3,14,0.00,0,,47